AFR809 TFFF-LFPG
Flight info
| Callsign | AFR809 |
|---|---|
| Flight time | N/A |
| Altitude | 35000 |
| Route | KISES2R KISES A324 FOF DCT 16N060W DCT DRDGE/M084F350 DCT 21N055W 25N050W 27N048W 29N045W 33N040W 39N030W/M084F370 41N025W 44N020W 47N015W DCT TAMEL DCT EVBAK DCT GAPLI/N0481F370 DCT ANNET UM25 INGOR/N0490F280 UM25 LUKIP |
| Aircraft | B77W/H-SDE1E2E3FGHIJ2J3J4J5M1RWXY/LB1D1 |
Departure
| Time | 2026-05-01 07:48 |
|---|---|
| Airport | Martinique Aimé Césaire International Airport (TFFF) |
Arrival
| Time | N/A |
|---|---|
| Airport | Charles de Gaulle International Airport (LFPG) |
| Time | Latitude | Longitude | Altitude | Speed | Heading |
|---|---|---|---|---|---|
| 2026-05-01 07:23 | 14.59456 | -61.00036 | 17 ft | 0 kts | 23° |
| 2026-05-01 07:38 | 14.59454 | -61.00038 | 17 ft | 4 kts | 21° |
| 2026-05-01 07:39 | 14.59433 | -61.00050 | 19 ft | 4 kts | 33° |
| 2026-05-01 07:39 | 14.59410 | -61.00068 | 19 ft | 4 kts | 47° |
| 2026-05-01 07:39 | 14.59390 | -61.00113 | 17 ft | 4 kts | 102° |
| 2026-05-01 07:40 | 14.59394 | -61.00130 | 18 ft | 1 kts | 108° |
| 2026-05-01 07:40 | 14.59395 | -61.00133 | 18 ft | 0 kts | 108° |
| 2026-05-01 07:42 | 14.59391 | -61.00121 | 17 ft | 10 kts | 108° |
| 2026-05-01 07:42 | 14.59345 | -61.00054 | 17 ft | 12 kts | 152° |
| 2026-05-01 07:43 | 14.59269 | -61.00031 | 17 ft | 11 kts | 169° |
| 2026-05-01 07:43 | 14.59200 | -61.00020 | 16 ft | 8 kts | 179° |
| 2026-05-01 07:43 | 14.59123 | -61.00228 | 14 ft | 36 kts | 258° |
| 2026-05-01 07:44 | 14.59037 | -61.00719 | 16 ft | 32 kts | 259° |
| 2026-05-01 07:44 | 14.58964 | -61.01145 | 17 ft | 30 kts | 260° |
| 2026-05-01 07:45 | 14.58928 | -61.01353 | 17 ft | 26 kts | 260° |
| 2026-05-01 07:45 | 14.58902 | -61.01510 | 16 ft | 18 kts | 260° |
| 2026-05-01 07:45 | 14.58881 | -61.01638 | 15 ft | 18 kts | 261° |
| 2026-05-01 07:45 | 14.58884 | -61.01746 | 13 ft | 13 kts | 296° |
| 2026-05-01 07:46 | 14.58895 | -61.01788 | 13 ft | 3 kts | 247° |
| 2026-05-01 07:46 | 14.58868 | -61.01796 | 13 ft | 3 kts | 150° |
| 2026-05-01 07:46 | 14.58863 | -61.01766 | 13 ft | 0 kts | 86° |
| 2026-05-01 07:47 | 14.58884 | -61.01612 | 15 ft | 63 kts | 80° |
| 2026-05-01 07:48 | 14.59257 | -60.99451 | 587 ft | 206 kts | 80° |
| 2026-05-01 07:48 | 14.59503 | -60.98018 | 2158 ft | 198 kts | 81° |
| 2026-05-01 07:48 | 14.59744 | -60.96597 | 2995 ft | 208 kts | 81° |
| 2026-05-01 07:49 | 14.60011 | -60.95027 | 3285 ft | 232 kts | 81° |
| 2026-05-01 07:49 | 14.60595 | -60.91611 | 4594 ft | 252 kts | 79° |
| 2026-05-01 07:49 | 14.60943 | -60.89859 | 5255 ft | 257 kts | 70° |
| 2026-05-01 07:50 | 14.61969 | -60.88330 | 5883 ft | 264 kts | 40° |
| 2026-05-01 07:50 | 14.64984 | -60.86035 | 7299 ft | 274 kts | 37° |
| 2026-05-01 07:50 | 14.66506 | -60.84885 | 8087 ft | 277 kts | 37° |
| 2026-05-01 07:51 | 14.68077 | -60.83700 | 8838 ft | 281 kts | 37° |
| 2026-05-01 07:51 | 14.69670 | -60.82497 | 9557 ft | 287 kts | 37° |
| 2026-05-01 07:51 | 14.71268 | -60.81291 | 10221 ft | 292 kts | 37° |
| 2026-05-01 07:52 | 14.74775 | -60.78637 | 10705 ft | 337 kts | 37° |
| 2026-05-01 07:52 | 14.76738 | -60.77150 | 10866 ft | 361 kts | 37° |
| 2026-05-01 07:52 | 14.78819 | -60.75573 | 11192 ft | 378 kts | 37° |
| 2026-05-01 07:53 | 14.83180 | -60.72269 | 12314 ft | 396 kts | 37° |
| 2026-05-01 07:53 | 14.85338 | -60.70633 | 12960 ft | 401 kts | 37° |
| 2026-05-01 07:53 | 14.87612 | -60.68909 | 13613 ft | 407 kts | 38° |
| 2026-05-01 07:53 | 14.89895 | -60.67176 | 14185 ft | 413 kts | 37° |
| 2026-05-01 07:54 | 14.94576 | -60.63622 | 15425 ft | 421 kts | 37° |
| 2026-05-01 07:55 | 15.01788 | -60.58142 | 17145 ft | 436 kts | 36° |
| 2026-05-01 07:55 | 15.06686 | -60.54418 | 18300 ft | 443 kts | 36° |
| 2026-05-01 07:56 | 15.14245 | -60.48666 | 19829 ft | 453 kts | 36° |
| 2026-05-01 07:56 | 15.19367 | -60.44765 | 20862 ft | 459 kts | 35° |
| 2026-05-01 07:57 | 15.21948 | -60.42798 | 21355 ft | 463 kts | 35° |
| 2026-05-01 07:57 | 15.27151 | -60.38832 | 22250 ft | 471 kts | 34° |
| 2026-05-01 07:58 | 15.32489 | -60.34761 | 23155 ft | 479 kts | 34° |
| 2026-05-01 07:58 | 15.37864 | -60.30657 | 23990 ft | 484 kts | 34° |
| 2026-05-01 07:59 | 15.43319 | -60.26490 | 24784 ft | 489 kts | 34° |
| 2026-05-01 07:59 | 15.48817 | -60.22287 | 25529 ft | 494 kts | 34° |
| 2026-05-01 08:00 | 15.60018 | -60.13714 | 26948 ft | 505 kts | 34° |
| 2026-05-01 08:01 | 15.69043 | -60.08429 | 27958 ft | 499 kts | 10° |
| 2026-05-01 08:01 | 15.72434 | -60.07599 | 28276 ft | 501 kts | 9° |
| 2026-05-01 08:01 | 15.75848 | -60.06761 | 28586 ft | 504 kts | 10° |
| 2026-05-01 08:02 | 15.82691 | -60.04927 | 29227 ft | 508 kts | 12° |
| 2026-05-01 08:02 | 15.86080 | -60.03962 | 29514 ft | 510 kts | 12° |
| 2026-05-01 08:03 | 15.92959 | -60.01996 | 30082 ft | 513 kts | 12° |
| 2026-05-01 08:03 | 15.96380 | -60.00907 | 30414 ft | 515 kts | 18° |
| 2026-05-01 08:03 | 16.02640 | -59.97332 | 31112 ft | 520 kts | 33° |
| 2026-05-01 08:04 | 16.08052 | -59.92292 | 31744 ft | 523 kts | 41° |
| 2026-05-01 08:04 | 16.12405 | -59.87884 | 32105 ft | 527 kts | 40° |
| 2026-05-01 08:05 | 16.17670 | -59.82590 | 32794 ft | 524 kts | 40° |
| 2026-05-01 08:05 | 16.20310 | -59.79963 | 32936 ft | 526 kts | 40° |
| 2026-05-01 08:06 | 16.28262 | -59.72104 | 32959 ft | 522 kts | 40° |
| 2026-05-01 08:07 | 16.38738 | -59.61746 | 32975 ft | 521 kts | 39° |
| 2026-05-01 08:08 | 16.46604 | -59.53953 | 33024 ft | 525 kts | 39° |
| 2026-05-01 08:08 | 16.51864 | -59.48734 | 33650 ft | 523 kts | 39° |
| 2026-05-01 08:09 | 16.57102 | -59.43529 | 34365 ft | 518 kts | 39° |
| 2026-05-01 08:09 | 16.59712 | -59.40935 | 34628 ft | 517 kts | 39° |
| 2026-05-01 08:09 | 16.62284 | -59.38380 | 34849 ft | 517 kts | 39° |
| 2026-05-01 08:10 | 16.72812 | -59.27912 | 35000 ft | 522 kts | 39° |
| 2026-05-01 08:11 | 16.83268 | -59.17490 | 34968 ft | 519 kts | 39° |
| 2026-05-01 08:12 | 16.91119 | -59.09658 | 34974 ft | 521 kts | 39° |
| 2026-05-01 08:13 | 16.99021 | -59.01766 | 34979 ft | 526 kts | 39° |
| 2026-05-01 08:13 | 17.06956 | -58.93829 | 34976 ft | 530 kts | 39° |
| 2026-05-01 08:14 | 17.12288 | -58.88489 | 34972 ft | 530 kts | 39° |
| 2026-05-01 08:14 | 17.17632 | -58.83132 | 34971 ft | 531 kts | 39° |
| 2026-05-01 08:15 | 17.25631 | -58.75107 | 34975 ft | 530 kts | 39° |
| 2026-05-01 08:16 | 17.30913 | -58.69804 | 34976 ft | 530 kts | 39° |
| 2026-05-01 08:16 | 17.36245 | -58.64444 | 34974 ft | 529 kts | 39° |
| 2026-05-01 08:17 | 17.41544 | -58.59113 | 34986 ft | 529 kts | 39° |
| 2026-05-01 08:17 | 17.46852 | -58.53769 | 34968 ft | 528 kts | 39° |
| 2026-05-01 08:18 | 17.52115 | -58.48466 | 34979 ft | 527 kts | 39° |
| 2026-05-01 08:19 | 17.62686 | -58.37801 | 34980 ft | 526 kts | 39° |
| 2026-05-01 08:19 | 17.67933 | -58.32499 | 34987 ft | 526 kts | 38° |
| 2026-05-01 08:20 | 17.73207 | -58.27167 | 34982 ft | 526 kts | 38° |
| 2026-05-01 08:20 | 17.78486 | -58.21825 | 34980 ft | 526 kts | 38° |
| 2026-05-01 08:21 | 17.83722 | -58.16521 | 34976 ft | 526 kts | 38° |
| 2026-05-01 08:21 | 17.88988 | -58.11182 | 34996 ft | 526 kts | 38° |
| 2026-05-01 08:22 | 17.94254 | -58.05839 | 34980 ft | 526 kts | 38° |
| 2026-05-01 08:22 | 17.99532 | -58.00479 | 34983 ft | 526 kts | 38° |
| 2026-05-01 08:23 | 18.04813 | -57.95233 | 34986 ft | 525 kts | 37° |
| 2026-05-01 08:23 | 18.10182 | -57.90035 | 34981 ft | 525 kts | 37° |
| 2026-05-01 08:24 | 18.15551 | -57.84832 | 34990 ft | 525 kts | 37° |
| 2026-05-01 08:24 | 18.20930 | -57.79589 | 34983 ft | 526 kts | 37° |
| 2026-05-01 08:25 | 18.26304 | -57.74331 | 34988 ft | 527 kts | 37° |
| 2026-05-01 08:25 | 18.31645 | -57.69099 | 34987 ft | 528 kts | 37° |
| 2026-05-01 08:26 | 18.37036 | -57.63816 | 34987 ft | 528 kts | 37° |
| 2026-05-01 08:26 | 18.42377 | -57.58577 | 34989 ft | 528 kts | 37° |
| 2026-05-01 08:27 | 18.47749 | -57.53305 | 34986 ft | 527 kts | 37° |
| 2026-05-01 08:27 | 18.53115 | -57.48033 | 34987 ft | 527 kts | 37° |
| 2026-05-01 08:28 | 18.58473 | -57.42764 | 34988 ft | 526 kts | 37° |
| 2026-05-01 08:28 | 18.63831 | -57.37492 | 34994 ft | 526 kts | 37° |
| 2026-05-01 08:29 | 18.69165 | -57.32238 | 34989 ft | 527 kts | 37° |
| 2026-05-01 08:29 | 18.74525 | -57.26954 | 34992 ft | 527 kts | 37° |
| 2026-05-01 08:30 | 18.79888 | -57.21662 | 34994 ft | 527 kts | 37° |
| 2026-05-01 08:30 | 18.85246 | -57.16368 | 34994 ft | 527 kts | 37° |
| 2026-05-01 08:31 | 18.90580 | -57.11096 | 34991 ft | 528 kts | 37° |
| 2026-05-01 08:31 | 18.95954 | -57.05778 | 34999 ft | 528 kts | 37° |
| 2026-05-01 08:32 | 19.01321 | -57.00462 | 34997 ft | 529 kts | 37° |
| 2026-05-01 08:32 | 19.06664 | -56.95164 | 35000 ft | 529 kts | 37° |
| 2026-05-01 08:33 | 19.12033 | -56.89836 | 35005 ft | 529 kts | 37° |
| 2026-05-01 08:33 | 19.17368 | -56.84537 | 34996 ft | 529 kts | 37° |
| 2026-05-01 08:34 | 19.22647 | -56.79289 | 34996 ft | 528 kts | 37° |
| 2026-05-01 08:34 | 19.27995 | -56.73967 | 34999 ft | 528 kts | 37° |
| 2026-05-01 08:35 | 19.33360 | -56.68624 | 34996 ft | 528 kts | 37° |
| 2026-05-01 08:35 | 19.38684 | -56.63316 | 35006 ft | 528 kts | 37° |
| 2026-05-01 08:36 | 19.44042 | -56.57970 | 35005 ft | 529 kts | 37° |
| 2026-05-01 08:36 | 19.49398 | -56.52619 | 35007 ft | 529 kts | 37° |
| 2026-05-01 08:37 | 19.54725 | -56.47293 | 35002 ft | 529 kts | 37° |
| 2026-05-01 08:37 | 19.60090 | -56.41923 | 35017 ft | 529 kts | 38° |
| 2026-05-01 08:38 | 19.65451 | -56.36554 | 35006 ft | 529 kts | 38° |
| 2026-05-01 08:38 | 19.70801 | -56.31189 | 35004 ft | 529 kts | 38° |
| 2026-05-01 08:39 | 19.76124 | -56.25846 | 35003 ft | 529 kts | 38° |
| 2026-05-01 08:39 | 19.81481 | -56.20464 | 35025 ft | 529 kts | 38° |
| 2026-05-01 08:40 | 19.89482 | -56.12416 | 35000 ft | 529 kts | 38° |
| 2026-05-01 08:40 | 19.94837 | -56.07023 | 35013 ft | 529 kts | 38° |
| 2026-05-01 08:41 | 20.00191 | -56.01626 | 34996 ft | 530 kts | 38° |
| 2026-05-01 08:41 | 20.05515 | -55.96252 | 35009 ft | 530 kts | 37° |
| 2026-05-01 08:42 | 20.10840 | -55.90874 | 35001 ft | 530 kts | 37° |
| 2026-05-01 08:42 | 20.16191 | -55.85465 | 35001 ft | 531 kts | 37° |
| 2026-05-01 08:43 | 20.21560 | -55.80030 | 35000 ft | 531 kts | 37° |
| 2026-05-01 08:43 | 20.26917 | -55.74602 | 35014 ft | 531 kts | 37° |
| 2026-05-01 08:44 | 20.32249 | -55.69195 | 35008 ft | 531 kts | 37° |
| 2026-05-01 08:44 | 20.37603 | -55.63760 | 35006 ft | 531 kts | 37° |
| 2026-05-01 08:45 | 20.42937 | -55.58340 | 35005 ft | 531 kts | 37° |
| 2026-05-01 08:45 | 20.48289 | -55.52895 | 35005 ft | 530 kts | 38° |
| 2026-05-01 08:46 | 20.53642 | -55.47445 | 35013 ft | 530 kts | 38° |
| 2026-05-01 08:46 | 20.58961 | -55.42023 | 35002 ft | 530 kts | 38° |
| 2026-05-01 08:47 | 20.64302 | -55.36573 | 35002 ft | 530 kts | 38° |
| 2026-05-01 08:47 | 20.69599 | -55.31163 | 35003 ft | 530 kts | 38° |
| 2026-05-01 08:48 | 20.74933 | -55.25710 | 35003 ft | 530 kts | 38° |
| 2026-05-01 08:48 | 20.80262 | -55.20255 | 35003 ft | 530 kts | 38° |
| 2026-05-01 08:49 | 20.85571 | -55.14816 | 35004 ft | 530 kts | 38° |
| 2026-05-01 08:49 | 20.90906 | -55.09344 | 35002 ft | 530 kts | 38° |
| 2026-05-01 08:50 | 20.95340 | -55.04791 | 35016 ft | 531 kts | 38° |
| 2026-05-01 08:50 | 21.01486 | -54.98326 | 34999 ft | 534 kts | 42° |
| 2026-05-01 08:51 | 21.05634 | -54.93411 | 35009 ft | 535 kts | 43° |
| 2026-05-01 08:51 | 21.10589 | -54.87425 | 35002 ft | 536 kts | 43° |
| 2026-05-01 08:52 | 21.15541 | -54.81456 | 35029 ft | 536 kts | 43° |
| 2026-05-01 08:52 | 21.20489 | -54.75525 | 35016 ft | 535 kts | 43° |
| 2026-05-01 08:53 | 21.25475 | -54.69557 | 35000 ft | 535 kts | 43° |
| 2026-05-01 08:53 | 21.30410 | -54.63643 | 34998 ft | 534 kts | 43° |
| 2026-05-01 08:54 | 21.35358 | -54.57705 | 35009 ft | 533 kts | 43° |
| 2026-05-01 08:54 | 21.40301 | -54.51765 | 34999 ft | 533 kts | 43° |
| 2026-05-01 08:55 | 21.45258 | -54.45801 | 35011 ft | 533 kts | 43° |
| 2026-05-01 08:55 | 21.50161 | -54.39895 | 35013 ft | 532 kts | 43° |
| 2026-05-01 08:56 | 21.55109 | -54.33930 | 35012 ft | 532 kts | 43° |
| 2026-05-01 08:56 | 21.60005 | -54.28020 | 35009 ft | 532 kts | 43° |
| 2026-05-01 08:57 | 21.64933 | -54.22066 | 35005 ft | 532 kts | 43° |
| 2026-05-01 08:57 | 21.69850 | -54.16116 | 35009 ft | 531 kts | 43° |
| 2026-05-01 08:58 | 21.74768 | -54.10160 | 35008 ft | 531 kts | 43° |
| 2026-05-01 08:58 | 21.79679 | -54.04206 | 35017 ft | 531 kts | 43° |
| 2026-05-01 08:59 | 21.84559 | -53.98284 | 35008 ft | 531 kts | 43° |
| 2026-05-01 08:59 | 21.89476 | -53.92309 | 35007 ft | 532 kts | 43° |
| 2026-05-01 09:00 | 21.94359 | -53.86369 | 35010 ft | 532 kts | 43° |
| 2026-05-01 09:00 | 21.99263 | -53.80396 | 35020 ft | 532 kts | 43° |
| 2026-05-01 09:01 | 22.04157 | -53.74428 | 35018 ft | 533 kts | 43° |
| 2026-05-01 09:01 | 22.09080 | -53.68420 | 35012 ft | 533 kts | 43° |
| 2026-05-01 09:02 | 22.14005 | -53.62400 | 35011 ft | 534 kts | 43° |
| 2026-05-01 09:02 | 22.18883 | -53.56433 | 35027 ft | 534 kts | 43° |
| 2026-05-01 09:03 | 22.23807 | -53.50401 | 35014 ft | 534 kts | 43° |
| 2026-05-01 09:03 | 22.28695 | -53.44407 | 35014 ft | 534 kts | 43° |
| 2026-05-01 09:04 | 22.33611 | -53.38372 | 35016 ft | 534 kts | 43° |
| 2026-05-01 09:04 | 22.38524 | -53.32332 | 35021 ft | 534 kts | 43° |
| 2026-05-01 09:05 | 22.43404 | -53.26328 | 35013 ft | 534 kts | 43° |
| 2026-05-01 09:05 | 22.48307 | -53.20288 | 35013 ft | 533 kts | 43° |
| 2026-05-01 09:06 | 22.53192 | -53.14262 | 35008 ft | 533 kts | 43° |
| 2026-05-01 09:06 | 22.58062 | -53.08248 | 35030 ft | 532 kts | 43° |
| 2026-05-01 09:07 | 22.62949 | -53.02207 | 35015 ft | 533 kts | 43° |
| 2026-05-01 09:07 | 22.67802 | -52.96201 | 35012 ft | 533 kts | 43° |
| 2026-05-01 09:08 | 22.72690 | -52.90143 | 35010 ft | 532 kts | 43° |
| 2026-05-01 09:08 | 22.77553 | -52.84110 | 35011 ft | 532 kts | 43° |
| 2026-05-01 09:09 | 22.82430 | -52.78051 | 35011 ft | 532 kts | 43° |
| 2026-05-01 09:09 | 22.87278 | -52.72023 | 35013 ft | 532 kts | 44° |
| 2026-05-01 09:10 | 22.92148 | -52.65959 | 35006 ft | 531 kts | 44° |
| 2026-05-01 09:10 | 22.96997 | -52.59915 | 35014 ft | 531 kts | 44° |
| 2026-05-01 09:11 | 23.01825 | -52.53890 | 35008 ft | 532 kts | 44° |
| 2026-05-01 09:11 | 23.06706 | -52.47792 | 35011 ft | 533 kts | 44° |
| 2026-05-01 09:12 | 23.11549 | -52.41732 | 35010 ft | 534 kts | 44° |
| 2026-05-01 09:12 | 23.16419 | -52.35634 | 35017 ft | 535 kts | 44° |
| 2026-05-01 09:13 | 23.21308 | -52.29502 | 35011 ft | 536 kts | 44° |
| 2026-05-01 09:13 | 23.26166 | -52.23401 | 35015 ft | 536 kts | 43° |
| 2026-05-01 09:14 | 23.31050 | -52.17261 | 35009 ft | 536 kts | 43° |
| 2026-05-01 09:14 | 23.35932 | -52.11117 | 35021 ft | 536 kts | 44° |
| 2026-05-01 09:15 | 23.40777 | -52.05011 | 35010 ft | 536 kts | 44° |
| 2026-05-01 09:15 | 23.45651 | -51.98860 | 35018 ft | 535 kts | 44° |
| 2026-05-01 09:16 | 23.50514 | -51.92716 | 35008 ft | 534 kts | 44° |
| 2026-05-01 09:17 | 23.57789 | -51.83513 | 35007 ft | 534 kts | 44° |
| 2026-05-01 09:17 | 23.65048 | -51.74312 | 35015 ft | 535 kts | 44° |
| 2026-05-01 09:18 | 23.72337 | -51.65054 | 35027 ft | 535 kts | 44° |
| 2026-05-01 09:19 | 23.79611 | -51.55802 | 35008 ft | 538 kts | 44° |
| 2026-05-01 09:20 | 23.86948 | -51.46448 | 35011 ft | 539 kts | 44° |
| 2026-05-01 09:21 | 23.96697 | -51.33993 | 35012 ft | 541 kts | 44° |
| 2026-05-01 09:21 | 24.04022 | -51.24614 | 35012 ft | 541 kts | 44° |
| 2026-05-01 09:22 | 24.13770 | -51.12104 | 35021 ft | 542 kts | 44° |
| 2026-05-01 09:23 | 24.21103 | -51.02672 | 35018 ft | 544 kts | 44° |
| 2026-05-01 09:24 | 24.28471 | -50.93177 | 35017 ft | 545 kts | 44° |
| 2026-05-01 09:25 | 24.38273 | -50.80516 | 35004 ft | 546 kts | 44° |
| 2026-05-01 09:26 | 24.45636 | -50.70982 | 35014 ft | 546 kts | 44° |
| 2026-05-01 09:26 | 24.53005 | -50.61423 | 35000 ft | 546 kts | 44° |
| 2026-05-01 09:27 | 24.60329 | -50.51904 | 35009 ft | 545 kts | 44° |
| 2026-05-01 09:28 | 24.65231 | -50.45521 | 35010 ft | 545 kts | 44° |
| 2026-05-01 09:28 | 24.70125 | -50.39141 | 35003 ft | 546 kts | 44° |
| 2026-05-01 09:29 | 24.77468 | -50.29552 | 35016 ft | 545 kts | 44° |
| 2026-05-01 09:30 | 24.84784 | -50.19978 | 35007 ft | 546 kts | 44° |
| 2026-05-01 09:30 | 24.92124 | -50.10352 | 35008 ft | 546 kts | 44° |
| 2026-05-01 09:31 | 24.96985 | -50.03967 | 35017 ft | 546 kts | 44° |
| 2026-05-01 09:32 | 25.04874 | -49.95054 | 35023 ft | 537 kts | 34° |
| 2026-05-01 09:32 | 25.13328 | -49.86934 | 35016 ft | 538 kts | 34° |
| 2026-05-01 09:33 | 25.18961 | -49.81459 | 35011 ft | 539 kts | 35° |
| 2026-05-01 09:34 | 25.27351 | -49.73217 | 34989 ft | 539 kts | 35° |
| 2026-05-01 09:34 | 25.35755 | -49.64941 | 35007 ft | 538 kts | 35° |
| 2026-05-01 09:35 | 25.44103 | -49.56711 | 34999 ft | 536 kts | 35° |
| 2026-05-01 09:36 | 25.49680 | -49.51206 | 35014 ft | 535 kts | 35° |
| 2026-05-01 09:36 | 25.55228 | -49.45722 | 34989 ft | 534 kts | 36° |
| 2026-05-01 09:37 | 25.60616 | -49.40389 | 34992 ft | 533 kts | 36° |
| 2026-05-01 09:37 | 25.67966 | -49.33103 | 35022 ft | 531 kts | 36° |
| 2026-05-01 09:38 | 25.76215 | -49.24909 | 34990 ft | 528 kts | 36° |
| 2026-05-01 09:39 | 25.84405 | -49.16762 | 35008 ft | 526 kts | 36° |
| 2026-05-01 09:39 | 25.89836 | -49.11349 | 35003 ft | 523 kts | 36° |
| 2026-05-01 09:40 | 25.97922 | -49.03276 | 34981 ft | 521 kts | 36° |
| 2026-05-01 09:41 | 26.03313 | -48.97888 | 35009 ft | 519 kts | 37° |
| 2026-05-01 09:41 | 26.11319 | -48.89870 | 34984 ft | 517 kts | 37° |
| 2026-05-01 09:42 | 26.16651 | -48.84521 | 34984 ft | 515 kts | 37° |
| 2026-05-01 09:43 | 26.27255 | -48.73864 | 34980 ft | 510 kts | 37° |
| 2026-05-01 09:43 | 26.32510 | -48.68572 | 34982 ft | 508 kts | 37° |
| 2026-05-01 09:44 | 26.40377 | -48.60640 | 34982 ft | 508 kts | 37° |
| 2026-05-01 09:45 | 26.45596 | -48.55370 | 34993 ft | 510 kts | 37° |
| 2026-05-01 09:45 | 26.53528 | -48.47346 | 35002 ft | 514 kts | 37° |
| 2026-05-01 09:46 | 26.58830 | -48.41971 | 34979 ft | 514 kts | 37° |
| 2026-05-01 09:46 | 26.64125 | -48.36596 | 34979 ft | 514 kts | 37° |
| 2026-05-01 09:47 | 26.69374 | -48.31263 | 34981 ft | 513 kts | 37° |
| 2026-05-01 09:47 | 26.74660 | -48.25884 | 34984 ft | 511 kts | 37° |
| 2026-05-01 09:48 | 26.79914 | -48.20531 | 34966 ft | 510 kts | 37° |
| 2026-05-01 09:48 | 26.85153 | -48.15187 | 34978 ft | 509 kts | 37° |
| 2026-05-01 09:49 | 26.90359 | -48.09869 | 34980 ft | 508 kts | 37° |
| 2026-05-01 09:49 | 26.95586 | -48.04523 | 34972 ft | 508 kts | 37° |
| 2026-05-01 09:50 | 27.00692 | -47.99042 | 34968 ft | 512 kts | 43° |
| 2026-05-01 09:50 | 27.05131 | -47.92763 | 34985 ft | 515 kts | 49° |
| 2026-05-01 09:51 | 27.09370 | -47.86482 | 34979 ft | 516 kts | 49° |
| 2026-05-01 09:51 | 27.13722 | -47.80075 | 34974 ft | 516 kts | 48° |
| 2026-05-01 09:52 | 27.18102 | -47.73679 | 34986 ft | 516 kts | 48° |
| 2026-05-01 09:52 | 27.22494 | -47.67277 | 34977 ft | 517 kts | 48° |
| 2026-05-01 09:53 | 27.26892 | -47.60858 | 34973 ft | 518 kts | 48° |
| 2026-05-01 09:53 | 27.31257 | -47.54471 | 34970 ft | 518 kts | 48° |
| 2026-05-01 09:54 | 27.35654 | -47.48027 | 34972 ft | 519 kts | 48° |
| 2026-05-01 09:54 | 27.40047 | -47.41579 | 34961 ft | 519 kts | 48° |
| 2026-05-01 09:55 | 27.44448 | -47.35111 | 34966 ft | 519 kts | 48° |
| 2026-05-01 09:55 | 27.48806 | -47.28694 | 34967 ft | 519 kts | 48° |
| 2026-05-01 09:56 | 27.53197 | -47.22222 | 34972 ft | 519 kts | 48° |
| 2026-05-01 09:56 | 27.57582 | -47.15749 | 34953 ft | 520 kts | 48° |
| 2026-05-01 09:57 | 27.61968 | -47.09263 | 34964 ft | 520 kts | 47° |
| 2026-05-01 09:57 | 27.66352 | -47.02771 | 34964 ft | 520 kts | 47° |
| 2026-05-01 09:58 | 27.70710 | -46.96310 | 34958 ft | 521 kts | 48° |
| 2026-05-01 09:58 | 27.75099 | -46.89791 | 34972 ft | 521 kts | 47° |
| 2026-05-01 09:59 | 27.79492 | -46.83256 | 34961 ft | 521 kts | 47° |
| 2026-05-01 09:59 | 27.83871 | -46.76733 | 34961 ft | 521 kts | 47° |
| 2026-05-01 10:00 | 27.88224 | -46.70239 | 34960 ft | 521 kts | 47° |
| 2026-05-01 10:00 | 27.92596 | -46.63707 | 34962 ft | 521 kts | 47° |
| 2026-05-01 10:01 | 27.96969 | -46.57163 | 34960 ft | 521 kts | 47° |
| 2026-05-01 10:01 | 28.01341 | -46.50611 | 34966 ft | 521 kts | 48° |
| 2026-05-01 10:02 | 28.05684 | -46.44092 | 34960 ft | 521 kts | 47° |
| 2026-05-01 10:02 | 28.10053 | -46.37524 | 34956 ft | 521 kts | 47° |
| 2026-05-01 10:03 | 28.14413 | -46.30960 | 34952 ft | 521 kts | 47° |
| 2026-05-01 10:03 | 28.18741 | -46.24434 | 34954 ft | 521 kts | 48° |
| 2026-05-01 10:04 | 28.23110 | -46.17837 | 34948 ft | 521 kts | 48° |
| 2026-05-01 10:04 | 28.27454 | -46.11267 | 34948 ft | 521 kts | 48° |
| 2026-05-01 10:05 | 28.31804 | -46.04677 | 34954 ft | 521 kts | 48° |
| 2026-05-01 10:05 | 28.36126 | -45.98119 | 34949 ft | 521 kts | 48° |
| 2026-05-01 10:06 | 28.40474 | -45.91512 | 34946 ft | 522 kts | 48° |
| 2026-05-01 10:06 | 28.44820 | -45.84899 | 34954 ft | 522 kts | 48° |
| 2026-05-01 10:07 | 28.49176 | -45.78259 | 34944 ft | 522 kts | 48° |
| 2026-05-01 10:07 | 28.53491 | -45.71672 | 34942 ft | 523 kts | 48° |
| 2026-05-01 10:08 | 28.60010 | -45.61699 | 34940 ft | 523 kts | 48° |
| 2026-05-01 10:09 | 28.64356 | -45.55039 | 34936 ft | 523 kts | 48° |
| 2026-05-01 10:09 | 28.68688 | -45.48388 | 34954 ft | 523 kts | 48° |
| 2026-05-01 10:10 | 28.73003 | -45.41755 | 34942 ft | 524 kts | 48° |
| 2026-05-01 10:10 | 28.79516 | -45.31722 | 34939 ft | 524 kts | 48° |
| 2026-05-01 10:11 | 28.83858 | -45.25018 | 34922 ft | 525 kts | 48° |
| 2026-05-01 10:11 | 28.88174 | -45.18344 | 34948 ft | 525 kts | 48° |
| 2026-05-01 10:12 | 28.91801 | -45.12728 | 34931 ft | 525 kts | 48° |
| 2026-05-01 10:13 | 28.99007 | -45.01556 | 34927 ft | 525 kts | 47° |
| 2026-05-01 10:13 | 29.03800 | -44.95350 | 34937 ft | 517 kts | 39° |
| 2026-05-01 10:14 | 29.11389 | -44.86583 | 34923 ft | 517 kts | 39° |
| 2026-05-01 10:14 | 29.16394 | -44.80750 | 34949 ft | 517 kts | 39° |
| 2026-05-01 10:15 | 29.21410 | -44.74846 | 34930 ft | 517 kts | 39° |
| 2026-05-01 10:15 | 29.26420 | -44.68923 | 34919 ft | 515 kts | 39° |
| 2026-05-01 10:16 | 29.31362 | -44.63075 | 34918 ft | 513 kts | 39° |
| 2026-05-01 10:17 | 29.38797 | -44.54268 | 34919 ft | 511 kts | 39° |
| 2026-05-01 10:17 | 29.46217 | -44.45463 | 34919 ft | 511 kts | 39° |
| 2026-05-01 10:18 | 29.53599 | -44.36682 | 34916 ft | 512 kts | 39° |
| 2026-05-01 10:19 | 29.58562 | -44.30768 | 34917 ft | 514 kts | 39° |
| 2026-05-01 10:19 | 29.63526 | -44.24841 | 34911 ft | 515 kts | 39° |
| 2026-05-01 10:20 | 29.70950 | -44.15962 | 34908 ft | 516 kts | 39° |
| 2026-05-01 10:20 | 29.75930 | -44.09993 | 34906 ft | 516 kts | 39° |
| 2026-05-01 10:21 | 29.83387 | -44.01040 | 34927 ft | 516 kts | 39° |
| 2026-05-01 10:22 | 29.90856 | -43.92053 | 34912 ft | 517 kts | 39° |
| 2026-05-01 10:23 | 29.98293 | -43.83083 | 34916 ft | 518 kts | 39° |
| 2026-05-01 10:23 | 30.05769 | -43.74045 | 34905 ft | 519 kts | 39° |
| 2026-05-01 10:24 | 30.15700 | -43.62006 | 34908 ft | 520 kts | 39° |
| 2026-05-01 10:25 | 30.24843 | -43.50889 | 34896 ft | 521 kts | 39° |
| 2026-05-01 10:26 | 30.29840 | -43.44800 | 34897 ft | 522 kts | 39° |
| 2026-05-01 10:27 | 30.39859 | -43.32563 | 34899 ft | 524 kts | 40° |
| 2026-05-01 10:28 | 30.47374 | -43.23357 | 34898 ft | 526 kts | 40° |
| 2026-05-01 10:28 | 30.54918 | -43.14092 | 34889 ft | 526 kts | 40° |
| 2026-05-01 10:29 | 30.62443 | -43.04829 | 34893 ft | 525 kts | 40° |
| 2026-05-01 10:30 | 30.72425 | -42.92508 | 34884 ft | 525 kts | 40° |
| 2026-05-01 10:31 | 30.82434 | -42.80115 | 34884 ft | 525 kts | 40° |
| 2026-05-01 10:32 | 30.89950 | -42.70781 | 34884 ft | 527 kts | 41° |
| 2026-05-01 10:33 | 30.99938 | -42.58340 | 34878 ft | 527 kts | 41° |
| 2026-05-01 10:34 | 31.07462 | -42.48942 | 34875 ft | 528 kts | 41° |
| 2026-05-01 10:34 | 31.12481 | -42.42660 | 34873 ft | 528 kts | 41° |
| 2026-05-01 10:35 | 31.19962 | -42.33277 | 34871 ft | 529 kts | 42° |
| 2026-05-01 10:35 | 31.24975 | -42.26976 | 34904 ft | 529 kts | 42° |
| 2026-05-01 10:36 | 31.32481 | -42.17521 | 34873 ft | 528 kts | 42° |
| 2026-05-01 10:37 | 31.37480 | -42.11212 | 34858 ft | 528 kts | 42° |
| 2026-05-01 10:37 | 31.44928 | -42.01791 | 34867 ft | 527 kts | 42° |
| 2026-05-01 10:38 | 31.49905 | -41.95483 | 34868 ft | 526 kts | 43° |
| 2026-05-01 10:38 | 31.54881 | -41.89166 | 34863 ft | 527 kts | 43° |
| 2026-05-01 10:39 | 31.59850 | -41.82846 | 34861 ft | 527 kts | 43° |
| 2026-05-01 10:39 | 31.64825 | -41.76509 | 34873 ft | 527 kts | 43° |
| 2026-05-01 10:40 | 31.69769 | -41.70200 | 34870 ft | 527 kts | 43° |
| 2026-05-01 10:40 | 31.74733 | -41.63854 | 34864 ft | 526 kts | 43° |
| 2026-05-01 10:41 | 31.79688 | -41.57509 | 34855 ft | 525 kts | 43° |
| 2026-05-01 10:42 | 31.87064 | -41.48045 | 34853 ft | 524 kts | 43° |
| 2026-05-01 10:42 | 31.91983 | -41.41719 | 34854 ft | 523 kts | 43° |
| 2026-05-01 10:43 | 31.96899 | -41.35387 | 34853 ft | 523 kts | 43° |
| 2026-05-01 10:43 | 32.01813 | -41.29047 | 34859 ft | 523 kts | 43° |
| 2026-05-01 10:44 | 32.06723 | -41.22702 | 34845 ft | 524 kts | 43° |
| 2026-05-01 10:44 | 32.11630 | -41.16349 | 34855 ft | 524 kts | 44° |
| 2026-05-01 10:45 | 32.16504 | -41.10028 | 34853 ft | 524 kts | 44° |
| 2026-05-01 10:45 | 32.21400 | -41.03666 | 34853 ft | 523 kts | 44° |
| 2026-05-01 10:46 | 32.26295 | -40.97295 | 34851 ft | 523 kts | 44° |
| 2026-05-01 10:46 | 32.31188 | -40.90916 | 34865 ft | 523 kts | 44° |
| 2026-05-01 10:47 | 32.36064 | -40.84549 | 34851 ft | 523 kts | 44° |
| 2026-05-01 10:47 | 32.40955 | -40.78150 | 34849 ft | 523 kts | 44° |
| 2026-05-01 10:48 | 32.45844 | -40.71743 | 34852 ft | 524 kts | 44° |
| 2026-05-01 10:48 | 32.50731 | -40.65327 | 34855 ft | 524 kts | 44° |
| 2026-05-01 10:49 | 32.55620 | -40.58897 | 34860 ft | 525 kts | 44° |
| 2026-05-01 10:49 | 32.60483 | -40.52491 | 34853 ft | 526 kts | 44° |
| 2026-05-01 10:50 | 32.65372 | -40.46039 | 34850 ft | 526 kts | 44° |
| 2026-05-01 10:50 | 32.70261 | -40.39574 | 34849 ft | 526 kts | 44° |
| 2026-05-01 10:51 | 32.75154 | -40.33094 | 34845 ft | 526 kts | 44° |
| 2026-05-01 10:51 | 32.80007 | -40.26655 | 34850 ft | 526 kts | 44° |
| 2026-05-01 10:52 | 32.84894 | -40.20158 | 34850 ft | 526 kts | 44° |
| 2026-05-01 10:52 | 32.89768 | -40.13668 | 34846 ft | 526 kts | 44° |
| 2026-05-01 10:53 | 32.94644 | -40.07162 | 34867 ft | 526 kts | 44° |
| 2026-05-01 10:53 | 32.99520 | -40.00646 | 34866 ft | 525 kts | 44° |
| 2026-05-01 10:54 | 33.04251 | -39.94049 | 34841 ft | 526 kts | 47° |
| 2026-05-01 10:54 | 33.08852 | -39.87269 | 34843 ft | 525 kts | 47° |
| 2026-05-01 10:55 | 33.13442 | -39.80484 | 34862 ft | 525 kts | 47° |
| 2026-05-01 10:55 | 33.18053 | -39.73722 | 34846 ft | 524 kts | 47° |
| 2026-05-01 10:56 | 33.22642 | -39.67017 | 34850 ft | 524 kts | 47° |
| 2026-05-01 10:56 | 33.27267 | -39.60250 | 34851 ft | 524 kts | 47° |
| 2026-05-01 10:57 | 33.31873 | -39.53496 | 34858 ft | 525 kts | 47° |
| 2026-05-01 10:57 | 33.36489 | -39.46710 | 34851 ft | 525 kts | 47° |
| 2026-05-01 10:58 | 33.41102 | -39.39915 | 34870 ft | 525 kts | 47° |
| 2026-05-01 10:58 | 33.45683 | -39.33156 | 34856 ft | 525 kts | 47° |
| 2026-05-01 10:59 | 33.50283 | -39.26356 | 34845 ft | 524 kts | 47° |
| 2026-05-01 10:59 | 33.54866 | -39.19568 | 34849 ft | 524 kts | 47° |
| 2026-05-01 11:00 | 33.59444 | -39.12774 | 34853 ft | 523 kts | 47° |
| 2026-05-01 11:00 | 33.64020 | -39.05971 | 34852 ft | 523 kts | 47° |
| 2026-05-01 11:01 | 33.68560 | -38.99210 | 34859 ft | 524 kts | 47° |
| 2026-05-01 11:01 | 33.73137 | -38.92380 | 34857 ft | 524 kts | 47° |
| 2026-05-01 11:02 | 33.77714 | -38.85539 | 34858 ft | 524 kts | 47° |
| 2026-05-01 11:02 | 33.82280 | -38.78699 | 34858 ft | 525 kts | 48° |
| 2026-05-01 11:03 | 33.86852 | -38.71837 | 34858 ft | 525 kts | 48° |
| 2026-05-01 11:03 | 33.91394 | -38.65009 | 34868 ft | 525 kts | 48° |
| 2026-05-01 11:04 | 33.95958 | -38.58133 | 34856 ft | 525 kts | 48° |
| 2026-05-01 11:04 | 34.00511 | -38.51262 | 34858 ft | 526 kts | 48° |
| 2026-05-01 11:05 | 34.05069 | -38.44368 | 34858 ft | 526 kts | 48° |
| 2026-05-01 11:05 | 34.09640 | -38.37444 | 34858 ft | 526 kts | 48° |
| 2026-05-01 11:06 | 34.14169 | -38.30569 | 34860 ft | 526 kts | 48° |
| 2026-05-01 11:06 | 34.18728 | -38.23635 | 34864 ft | 526 kts | 48° |
| 2026-05-01 11:07 | 34.25554 | -38.13228 | 34870 ft | 526 kts | 49° |
| 2026-05-01 11:07 | 34.30103 | -38.06275 | 34871 ft | 526 kts | 49° |
| 2026-05-01 11:08 | 34.33872 | -38.00504 | 34875 ft | 525 kts | 49° |
| 2026-05-01 11:09 | 34.41385 | -37.88973 | 34870 ft | 522 kts | 49° |
| 2026-05-01 11:09 | 34.45115 | -37.83235 | 34866 ft | 521 kts | 49° |
| 2026-05-01 11:10 | 34.52558 | -37.71756 | 34873 ft | 520 kts | 49° |
| 2026-05-01 11:10 | 34.56271 | -37.66017 | 34884 ft | 518 kts | 50° |
| 2026-05-01 11:11 | 34.60690 | -37.59173 | 34875 ft | 517 kts | 50° |
| 2026-05-01 11:11 | 34.65135 | -37.52274 | 34875 ft | 517 kts | 50° |
| 2026-05-01 11:12 | 34.69534 | -37.45436 | 34875 ft | 516 kts | 50° |
| 2026-05-01 11:12 | 34.73939 | -37.38574 | 34880 ft | 514 kts | 50° |
| 2026-05-01 11:13 | 34.78336 | -37.31711 | 34900 ft | 513 kts | 51° |
| 2026-05-01 11:13 | 34.82705 | -37.24882 | 34883 ft | 508 kts | 52° |
| 2026-05-01 11:14 | 34.87022 | -37.18117 | 34876 ft | 503 kts | 52° |
| 2026-05-01 11:14 | 34.91270 | -37.11447 | 34880 ft | 499 kts | 52° |
| 2026-05-01 11:15 | 34.95520 | -37.04764 | 34896 ft | 498 kts | 52° |
| 2026-05-01 11:15 | 34.99768 | -36.98071 | 34891 ft | 499 kts | 53° |
| 2026-05-01 11:16 | 35.04042 | -36.91323 | 34894 ft | 504 kts | 53° |
| 2026-05-01 11:16 | 35.08317 | -36.84561 | 34903 ft | 508 kts | 53° |
| 2026-05-01 11:17 | 35.12640 | -36.77711 | 34904 ft | 508 kts | 53° |
| 2026-05-01 11:17 | 35.16931 | -36.70896 | 34892 ft | 503 kts | 53° |
| 2026-05-01 11:18 | 35.21164 | -36.64161 | 34904 ft | 502 kts | 53° |
| 2026-05-01 11:18 | 35.25417 | -36.57381 | 34924 ft | 501 kts | 53° |
| 2026-05-01 11:19 | 35.29659 | -36.50607 | 34922 ft | 500 kts | 53° |
| 2026-05-01 11:19 | 35.33882 | -36.43848 | 34912 ft | 498 kts | 53° |
| 2026-05-01 11:20 | 35.38086 | -36.37107 | 34911 ft | 497 kts | 53° |
| 2026-05-01 11:20 | 35.42277 | -36.30373 | 34919 ft | 496 kts | 53° |
| 2026-05-01 11:21 | 35.46434 | -36.23684 | 34923 ft | 495 kts | 53° |
| 2026-05-01 11:21 | 35.50610 | -36.16949 | 34933 ft | 494 kts | 53° |
| 2026-05-01 11:22 | 35.54776 | -36.10219 | 34932 ft | 494 kts | 53° |
| 2026-05-01 11:22 | 35.58910 | -36.03524 | 34935 ft | 494 kts | 53° |
| 2026-05-01 11:23 | 35.63071 | -35.96774 | 34943 ft | 495 kts | 53° |
| 2026-05-01 11:23 | 35.67227 | -35.90019 | 34955 ft | 495 kts | 53° |
| 2026-05-01 11:24 | 35.71388 | -35.83245 | 34944 ft | 496 kts | 53° |
| 2026-05-01 11:25 | 35.77584 | -35.73132 | 34945 ft | 493 kts | 54° |
| 2026-05-01 11:25 | 35.83751 | -35.63033 | 34962 ft | 490 kts | 54° |
| 2026-05-01 11:26 | 35.89891 | -35.52952 | 34961 ft | 489 kts | 54° |
| 2026-05-01 11:27 | 35.93976 | -35.46227 | 34963 ft | 489 kts | 54° |
| 2026-05-01 11:27 | 35.98057 | -35.39497 | 34965 ft | 490 kts | 54° |
| 2026-05-01 11:28 | 36.02111 | -35.32799 | 34975 ft | 490 kts | 54° |
| 2026-05-01 11:28 | 36.06202 | -35.26026 | 34973 ft | 491 kts | 54° |
| 2026-05-01 11:29 | 36.12343 | -35.15833 | 34980 ft | 492 kts | 54° |
| 2026-05-01 11:30 | 36.18480 | -35.05617 | 34992 ft | 492 kts | 54° |
| 2026-05-01 11:30 | 36.22531 | -34.98857 | 34987 ft | 491 kts | 54° |
| 2026-05-01 11:31 | 36.26592 | -34.92066 | 34992 ft | 489 kts | 54° |
| 2026-05-01 11:31 | 36.30630 | -34.85301 | 34992 ft | 487 kts | 54° |
| 2026-05-01 11:32 | 36.34655 | -34.78545 | 34993 ft | 485 kts | 54° |
| 2026-05-01 11:32 | 36.38662 | -34.71804 | 35002 ft | 485 kts | 54° |
| 2026-05-01 11:33 | 36.42636 | -34.65106 | 35003 ft | 484 kts | 54° |
| 2026-05-01 11:33 | 36.46626 | -34.58368 | 35009 ft | 484 kts | 54° |
| 2026-05-01 11:34 | 36.50612 | -34.51624 | 35011 ft | 485 kts | 54° |
| 2026-05-01 11:34 | 36.54607 | -34.44850 | 35008 ft | 485 kts | 54° |
| 2026-05-01 11:35 | 36.58602 | -34.38063 | 35019 ft | 486 kts | 54° |
| 2026-05-01 11:35 | 36.62583 | -34.31286 | 35020 ft | 487 kts | 54° |
| 2026-05-01 11:36 | 36.66587 | -34.24457 | 35018 ft | 488 kts | 54° |
| 2026-05-01 11:36 | 36.70593 | -34.17612 | 35017 ft | 489 kts | 53° |
| 2026-05-01 11:37 | 36.74597 | -34.10754 | 35025 ft | 489 kts | 53° |
| 2026-05-01 11:37 | 36.78602 | -34.03883 | 35025 ft | 489 kts | 53° |
| 2026-05-01 11:38 | 36.82576 | -33.97049 | 35023 ft | 489 kts | 54° |
| 2026-05-01 11:38 | 36.86571 | -33.90167 | 35024 ft | 489 kts | 54° |
| 2026-05-01 11:39 | 36.90565 | -33.83271 | 35034 ft | 489 kts | 54° |
| 2026-05-01 11:39 | 36.94543 | -33.76388 | 35032 ft | 488 kts | 54° |
| 2026-05-01 11:40 | 36.98520 | -33.69494 | 35036 ft | 488 kts | 54° |
| 2026-05-01 11:40 | 37.02462 | -33.62646 | 35033 ft | 488 kts | 53° |
| 2026-05-01 11:41 | 37.06429 | -33.55740 | 35039 ft | 488 kts | 53° |
| 2026-05-01 11:41 | 37.10396 | -33.48822 | 35037 ft | 489 kts | 53° |
| 2026-05-01 11:42 | 37.14364 | -33.41887 | 35045 ft | 489 kts | 53° |
| 2026-05-01 11:42 | 37.18337 | -33.34928 | 35046 ft | 490 kts | 53° |
| 2026-05-01 11:43 | 37.22304 | -33.27965 | 35044 ft | 491 kts | 53° |
| 2026-05-01 11:43 | 37.26260 | -33.21007 | 35046 ft | 492 kts | 53° |
| 2026-05-01 11:44 | 37.32217 | -33.10503 | 35047 ft | 492 kts | 53° |
| 2026-05-01 11:44 | 37.36184 | -33.03490 | 35054 ft | 492 kts | 53° |
| 2026-05-01 11:45 | 37.40131 | -32.96498 | 35052 ft | 492 kts | 53° |
| 2026-05-01 11:45 | 37.44093 | -32.89462 | 35058 ft | 492 kts | 53° |
| 2026-05-01 11:46 | 37.48056 | -32.82412 | 35059 ft | 492 kts | 53° |
| 2026-05-01 11:46 | 37.52007 | -32.75367 | 35060 ft | 492 kts | 53° |
| 2026-05-01 11:47 | 37.55938 | -32.68344 | 35065 ft | 492 kts | 53° |
| 2026-05-01 11:47 | 37.59889 | -32.61269 | 35069 ft | 493 kts | 53° |
| 2026-05-01 11:48 | 37.63817 | -32.54222 | 35065 ft | 493 kts | 54° |
| 2026-05-01 11:48 | 37.67759 | -32.47134 | 35069 ft | 493 kts | 54° |
| 2026-05-01 11:49 | 37.71701 | -32.40030 | 35071 ft | 494 kts | 54° |
| 2026-05-01 11:49 | 37.75645 | -32.32908 | 35071 ft | 494 kts | 54° |
| 2026-05-01 11:50 | 37.79556 | -32.25830 | 35071 ft | 494 kts | 54° |
| 2026-05-01 11:50 | 37.83491 | -32.18692 | 35071 ft | 494 kts | 54° |
| 2026-05-01 11:51 | 37.87425 | -32.11543 | 35074 ft | 494 kts | 54° |
| 2026-05-01 11:51 | 37.91351 | -32.04391 | 35070 ft | 494 kts | 54° |
| 2026-05-01 11:52 | 37.95253 | -31.97268 | 35071 ft | 494 kts | 54° |
| 2026-05-01 11:52 | 37.99166 | -31.90109 | 35077 ft | 494 kts | 54° |
| 2026-05-01 11:53 | 38.03076 | -31.82942 | 35073 ft | 493 kts | 54° |
| 2026-05-01 11:53 | 38.06976 | -31.75774 | 35074 ft | 493 kts | 54° |
| 2026-05-01 11:54 | 38.10840 | -31.68659 | 35072 ft | 492 kts | 54° |
| 2026-05-01 11:54 | 38.14722 | -31.61495 | 35076 ft | 491 kts | 54° |
| 2026-05-01 11:55 | 38.18604 | -31.54316 | 35078 ft | 491 kts | 54° |
| 2026-05-01 11:55 | 38.22471 | -31.47149 | 35081 ft | 491 kts | 54° |
| 2026-05-01 11:56 | 38.25683 | -31.41184 | 35081 ft | 491 kts | 54° |
| 2026-05-01 11:56 | 38.29540 | -31.34004 | 35082 ft | 491 kts | 54° |
| 2026-05-01 11:57 | 38.33401 | -31.26804 | 35080 ft | 492 kts | 54° |
| 2026-05-01 11:57 | 38.37254 | -31.19602 | 35081 ft | 492 kts | 54° |
| 2026-05-01 11:58 | 38.41088 | -31.12419 | 35084 ft | 492 kts | 55° |
| 2026-05-01 11:59 | 38.46864 | -31.01569 | 35084 ft | 492 kts | 55° |
| 2026-05-01 11:59 | 38.50713 | -30.94317 | 35090 ft | 492 kts | 54° |
| 2026-05-01 12:00 | 38.56443 | -30.83493 | 35090 ft | 492 kts | 55° |
| 2026-05-01 12:01 | 38.62195 | -30.72591 | 35091 ft | 492 kts | 55° |
| 2026-05-01 12:01 | 38.66027 | -30.65307 | 35093 ft | 492 kts | 55° |
| 2026-05-01 12:02 | 38.69828 | -30.58067 | 35090 ft | 492 kts | 54° |
| 2026-05-01 12:02 | 38.73641 | -30.50787 | 35089 ft | 492 kts | 55° |
| 2026-05-01 12:03 | 38.77456 | -30.43487 | 35089 ft | 492 kts | 55° |
| 2026-05-01 12:03 | 38.81260 | -30.36192 | 35093 ft | 492 kts | 55° |
| 2026-05-01 12:04 | 38.85059 | -30.28887 | 35089 ft | 492 kts | 54° |
| 2026-05-01 12:04 | 38.88825 | -30.21632 | 35102 ft | 492 kts | 54° |
| 2026-05-01 12:05 | 38.92612 | -30.14318 | 35092 ft | 491 kts | 55° |
| 2026-05-01 12:05 | 38.98289 | -30.03326 | 35097 ft | 492 kts | 55° |
| 2026-05-01 12:06 | 39.01881 | -29.95840 | 35107 ft | 492 kts | 59° |
| 2026-05-01 12:06 | 39.05207 | -29.88114 | 35101 ft | 493 kts | 60° |
| 2026-05-01 12:07 | 39.08486 | -29.80419 | 35103 ft | 494 kts | 59° |
| 2026-05-01 12:07 | 39.11809 | -29.72656 | 35102 ft | 495 kts | 59° |
| 2026-05-01 12:08 | 39.15150 | -29.64872 | 35105 ft | 497 kts | 59° |
| 2026-05-01 12:08 | 39.18503 | -29.57048 | 35104 ft | 498 kts | 59° |
| 2026-05-01 12:09 | 39.21823 | -29.49278 | 35106 ft | 499 kts | 59° |
| 2026-05-01 12:09 | 39.25176 | -29.41411 | 35109 ft | 499 kts | 59° |
| 2026-05-01 12:10 | 39.30171 | -29.29654 | 35106 ft | 500 kts | 59° |
| 2026-05-01 12:11 | 39.35174 | -29.17831 | 35094 ft | 500 kts | 59° |
| 2026-05-01 12:11 | 39.38502 | -29.09941 | 35117 ft | 500 kts | 59° |
| 2026-05-01 12:12 | 39.41827 | -29.02039 | 35121 ft | 499 kts | 59° |
| 2026-05-01 12:12 | 39.45122 | -28.94188 | 35123 ft | 499 kts | 59° |
| 2026-05-01 12:13 | 39.48436 | -28.86270 | 35124 ft | 499 kts | 59° |
| 2026-05-01 12:13 | 39.51724 | -28.78396 | 35117 ft | 499 kts | 59° |
| 2026-05-01 12:14 | 39.55017 | -28.70490 | 35113 ft | 499 kts | 59° |
| 2026-05-01 12:14 | 39.58314 | -28.62552 | 35121 ft | 499 kts | 59° |
| 2026-05-01 12:15 | 39.61589 | -28.54648 | 35118 ft | 500 kts | 59° |
| 2026-05-01 12:15 | 39.64873 | -28.46703 | 35117 ft | 500 kts | 59° |
| 2026-05-01 12:16 | 39.68156 | -28.38737 | 35119 ft | 500 kts | 59° |
| 2026-05-01 12:16 | 39.71440 | -28.30748 | 35115 ft | 501 kts | 59° |
| 2026-05-01 12:17 | 39.74722 | -28.22745 | 35119 ft | 501 kts | 59° |
| 2026-05-01 12:17 | 39.77975 | -28.14791 | 35121 ft | 501 kts | 59° |
| 2026-05-01 12:18 | 39.81239 | -28.06788 | 35134 ft | 501 kts | 59° |
| 2026-05-01 12:18 | 39.84508 | -27.98751 | 35129 ft | 501 kts | 59° |
| 2026-05-01 12:19 | 39.87764 | -27.90726 | 35119 ft | 501 kts | 59° |
| 2026-05-01 12:19 | 39.91018 | -27.82685 | 35115 ft | 501 kts | 60° |
| 2026-05-01 12:20 | 39.94249 | -27.74679 | 35131 ft | 501 kts | 60° |
| 2026-05-01 12:20 | 39.97486 | -27.66638 | 35121 ft | 501 kts | 60° |
| 2026-05-01 12:21 | 40.00728 | -27.58560 | 35132 ft | 500 kts | 60° |
| 2026-05-01 12:21 | 40.03935 | -27.50551 | 35123 ft | 499 kts | 60° |
| 2026-05-01 12:22 | 40.07143 | -27.42516 | 35123 ft | 498 kts | 60° |
| 2026-05-01 12:22 | 40.10342 | -27.34483 | 35118 ft | 497 kts | 60° |
| 2026-05-01 12:23 | 40.13523 | -27.26474 | 35123 ft | 497 kts | 60° |
| 2026-05-01 12:23 | 40.16682 | -27.18500 | 35117 ft | 497 kts | 60° |
| 2026-05-01 12:24 | 40.19870 | -27.10431 | 35114 ft | 497 kts | 60° |
| 2026-05-01 12:24 | 40.23021 | -27.02434 | 35117 ft | 498 kts | 60° |
| 2026-05-01 12:25 | 40.27789 | -26.90291 | 35116 ft | 499 kts | 60° |
| 2026-05-01 12:26 | 40.30958 | -26.82193 | 35124 ft | 500 kts | 60° |
| 2026-05-01 12:26 | 40.35694 | -26.70051 | 35121 ft | 500 kts | 60° |
| 2026-05-01 12:27 | 40.40435 | -26.57845 | 35125 ft | 500 kts | 60° |
| 2026-05-01 12:28 | 40.45144 | -26.45669 | 35123 ft | 500 kts | 60° |
| 2026-05-01 12:29 | 40.49859 | -26.33430 | 35122 ft | 500 kts | 60° |
| 2026-05-01 12:29 | 40.54560 | -26.21176 | 35133 ft | 500 kts | 60° |
| 2026-05-01 12:30 | 40.59239 | -26.08929 | 35118 ft | 499 kts | 61° |
| 2026-05-01 12:31 | 40.62333 | -26.00803 | 35121 ft | 498 kts | 61° |
| 2026-05-01 12:31 | 40.65431 | -25.92643 | 35129 ft | 498 kts | 61° |
| 2026-05-01 12:32 | 40.68527 | -25.84465 | 35117 ft | 498 kts | 61° |
| 2026-05-01 12:32 | 40.73154 | -25.72201 | 35120 ft | 498 kts | 61° |
| 2026-05-01 12:33 | 40.76212 | -25.64066 | 35132 ft | 498 kts | 61° |
| 2026-05-01 12:33 | 40.79283 | -25.55876 | 35123 ft | 498 kts | 61° |
| 2026-05-01 12:34 | 40.82353 | -25.47665 | 35115 ft | 498 kts | 61° |
| 2026-05-01 12:34 | 40.85417 | -25.39447 | 35117 ft | 498 kts | 61° |
| 2026-05-01 12:35 | 40.88475 | -25.31220 | 35119 ft | 498 kts | 61° |
| 2026-05-01 12:35 | 40.91501 | -25.23054 | 35120 ft | 498 kts | 61° |
| 2026-05-01 12:36 | 40.94550 | -25.14806 | 35120 ft | 498 kts | 62° |
| 2026-05-01 12:36 | 40.97591 | -25.06559 | 35120 ft | 498 kts | 62° |
| 2026-05-01 12:37 | 41.01005 | -24.98619 | 35132 ft | 495 kts | 52° |
| 2026-05-01 12:37 | 41.05341 | -24.91581 | 35138 ft | 492 kts | 46° |
| 2026-05-01 12:38 | 41.09826 | -24.84792 | 35124 ft | 492 kts | 46° |
| 2026-05-01 12:38 | 41.14323 | -24.77929 | 35119 ft | 492 kts | 46° |
| 2026-05-01 12:39 | 41.18797 | -24.71026 | 35125 ft | 492 kts | 46° |
| 2026-05-01 12:39 | 41.23254 | -24.64108 | 35132 ft | 493 kts | 46° |
| 2026-05-01 12:40 | 41.27683 | -24.57218 | 35124 ft | 493 kts | 46° |
| 2026-05-01 12:40 | 41.32143 | -24.50265 | 35125 ft | 493 kts | 46° |
| 2026-05-01 12:41 | 41.36602 | -24.43300 | 35134 ft | 493 kts | 46° |
| 2026-05-01 12:41 | 41.41022 | -24.36382 | 35139 ft | 494 kts | 46° |
| 2026-05-01 12:42 | 41.45471 | -24.29401 | 35135 ft | 494 kts | 46° |
| 2026-05-01 12:42 | 41.49916 | -24.22410 | 35123 ft | 494 kts | 46° |
| 2026-05-01 12:43 | 41.54358 | -24.15408 | 35124 ft | 494 kts | 46° |
| 2026-05-01 12:43 | 41.58801 | -24.08387 | 35126 ft | 494 kts | 47° |
| 2026-05-01 12:44 | 41.63246 | -24.01348 | 35136 ft | 495 kts | 47° |
| 2026-05-01 12:45 | 41.72097 | -23.87281 | 35137 ft | 495 kts | 47° |
| 2026-05-01 12:45 | 41.75783 | -23.81403 | 35135 ft | 495 kts | 47° |
| 2026-05-01 12:46 | 41.80931 | -23.73174 | 35145 ft | 495 kts | 47° |
| 2026-05-01 12:46 | 41.84641 | -23.67230 | 35139 ft | 495 kts | 47° |
| 2026-05-01 12:47 | 41.89055 | -23.60142 | 35140 ft | 495 kts | 47° |
| 2026-05-01 12:47 | 41.93465 | -23.53044 | 35142 ft | 495 kts | 47° |
| 2026-05-01 12:48 | 41.97848 | -23.45974 | 35146 ft | 495 kts | 47° |
| 2026-05-01 12:48 | 42.02256 | -23.38846 | 35148 ft | 495 kts | 47° |
| 2026-05-01 12:49 | 42.06658 | -23.31710 | 35140 ft | 495 kts | 47° |
| 2026-05-01 12:49 | 42.11020 | -23.24622 | 35142 ft | 494 kts | 47° |
| 2026-05-01 12:50 | 42.15404 | -23.17482 | 35147 ft | 494 kts | 47° |
| 2026-05-01 12:50 | 42.19782 | -23.10334 | 35150 ft | 494 kts | 47° |
| 2026-05-01 12:51 | 42.24162 | -23.03167 | 35161 ft | 494 kts | 48° |
| 2026-05-01 12:52 | 42.30717 | -22.92406 | 35145 ft | 494 kts | 48° |
| 2026-05-01 12:52 | 42.37229 | -22.81677 | 35152 ft | 494 kts | 48° |
| 2026-05-01 12:53 | 42.43760 | -22.70878 | 35156 ft | 494 kts | 48° |
| 2026-05-01 12:54 | 42.48105 | -22.63672 | 35153 ft | 493 kts | 48° |
| 2026-05-01 12:54 | 42.54585 | -22.52894 | 35155 ft | 493 kts | 48° |
| 2026-05-01 12:55 | 42.61082 | -22.42047 | 35162 ft | 493 kts | 48° |
| 2026-05-01 12:56 | 42.65393 | -22.34826 | 35153 ft | 492 kts | 49° |
| 2026-05-01 12:56 | 42.69687 | -22.27619 | 35155 ft | 492 kts | 48° |
| 2026-05-01 12:57 | 42.73986 | -22.20384 | 35156 ft | 491 kts | 48° |
| 2026-05-01 12:57 | 42.80431 | -22.09505 | 35156 ft | 491 kts | 49° |
| 2026-05-01 12:58 | 42.84713 | -22.02254 | 35161 ft | 491 kts | 49° |
| 2026-05-01 12:59 | 42.91114 | -21.91384 | 35159 ft | 492 kts | 49° |
| 2026-05-01 12:59 | 42.97535 | -21.80437 | 35155 ft | 492 kts | 49° |
| 2026-05-01 13:00 | 43.03920 | -21.69511 | 35156 ft | 492 kts | 49° |
| 2026-05-01 13:01 | 43.10318 | -21.58525 | 35174 ft | 491 kts | 49° |
| 2026-05-01 13:02 | 43.16701 | -21.47521 | 35165 ft | 491 kts | 50° |
| 2026-05-01 13:07 | 43.62889 | -20.66649 | 35174 ft | 488 kts | 50° |
| 2026-05-01 13:08 | 43.67051 | -20.59250 | 35176 ft | 488 kts | 51° |
| 2026-05-01 13:08 | 43.71189 | -20.51875 | 35181 ft | 488 kts | 51° |
| 2026-05-01 13:09 | 43.75344 | -20.44453 | 35178 ft | 488 kts | 51° |
| 2026-05-01 13:09 | 43.79493 | -20.37019 | 35180 ft | 488 kts | 51° |
| 2026-05-01 13:10 | 43.83642 | -20.29568 | 35174 ft | 488 kts | 51° |
| 2026-05-01 13:10 | 43.87767 | -20.22142 | 35201 ft | 488 kts | 51° |
| 2026-05-01 13:11 | 43.91896 | -20.14688 | 35457 ft | 490 kts | 51° |
| 2026-05-01 13:11 | 43.93971 | -20.10935 | 35809 ft | 488 kts | 51° |
| 2026-05-01 13:11 | 43.96032 | -20.07203 | 36186 ft | 486 kts | 51° |
| 2026-05-01 13:11 | 43.98088 | -20.03475 | 36542 ft | 485 kts | 51° |
| 2026-05-01 13:12 | 44.00147 | -19.99780 | 36840 ft | 484 kts | 49° |
| 2026-05-01 13:12 | 44.02361 | -19.96239 | 37082 ft | 484 kts | 47° |
| 2026-05-01 13:12 | 44.04632 | -19.92761 | 37126 ft | 487 kts | 46° |
| 2026-05-01 13:13 | 44.09176 | -19.85891 | 37188 ft | 485 kts | 46° |
| 2026-05-01 13:13 | 44.13728 | -19.78967 | 37189 ft | 483 kts | 47° |
| 2026-05-01 13:14 | 44.18235 | -19.72045 | 37189 ft | 481 kts | 47° |
| 2026-05-01 13:14 | 44.22722 | -19.65120 | 37180 ft | 481 kts | 47° |
| 2026-05-01 13:15 | 44.27178 | -19.58221 | 37179 ft | 481 kts | 47° |
| 2026-05-01 13:15 | 44.31660 | -19.51268 | 37175 ft | 482 kts | 47° |
| 2026-05-01 13:16 | 44.36159 | -19.44273 | 37180 ft | 483 kts | 47° |
| 2026-05-01 13:16 | 44.40658 | -19.37260 | 37193 ft | 484 kts | 47° |
| 2026-05-01 13:17 | 44.49635 | -19.23217 | 37171 ft | 486 kts | 47° |
| 2026-05-01 13:18 | 44.56396 | -19.12591 | 37182 ft | 486 kts | 47° |
| 2026-05-01 13:18 | 44.60866 | -19.05545 | 37186 ft | 486 kts | 47° |
| 2026-05-01 13:19 | 44.65364 | -18.98436 | 37185 ft | 486 kts | 47° |
| 2026-05-01 13:20 | 44.72093 | -18.87769 | 37182 ft | 486 kts | 47° |
| 2026-05-01 13:20 | 44.76550 | -18.80680 | 37182 ft | 486 kts | 48° |
| 2026-05-01 13:21 | 44.83263 | -18.69971 | 37185 ft | 486 kts | 48° |
| 2026-05-01 13:21 | 44.87737 | -18.62809 | 37184 ft | 486 kts | 48° |
| 2026-05-01 13:22 | 44.92202 | -18.55645 | 37180 ft | 486 kts | 48° |
| 2026-05-01 13:22 | 44.96638 | -18.48510 | 37183 ft | 486 kts | 48° |
| 2026-05-01 13:23 | 45.01102 | -18.41309 | 37179 ft | 487 kts | 48° |
| 2026-05-01 13:23 | 45.05563 | -18.34096 | 37179 ft | 487 kts | 48° |
| 2026-05-01 13:24 | 45.10007 | -18.26892 | 37187 ft | 488 kts | 48° |
| 2026-05-01 13:25 | 45.16710 | -18.15991 | 37177 ft | 489 kts | 48° |
| 2026-05-01 13:25 | 45.21146 | -18.08752 | 37179 ft | 489 kts | 48° |
| 2026-05-01 13:26 | 45.25605 | -18.01458 | 37176 ft | 489 kts | 49° |
| 2026-05-01 13:26 | 45.30064 | -17.94144 | 37171 ft | 489 kts | 49° |
| 2026-05-01 13:27 | 45.34495 | -17.86856 | 37173 ft | 490 kts | 49° |
| 2026-05-01 13:27 | 45.41180 | -17.75828 | 37172 ft | 491 kts | 49° |
| 2026-05-01 13:28 | 45.47860 | -17.64763 | 37168 ft | 492 kts | 49° |
| 2026-05-01 13:29 | 45.56778 | -17.49921 | 37167 ft | 493 kts | 49° |
| 2026-05-01 13:31 | 45.70131 | -17.27551 | 37167 ft | 494 kts | 49° |
| 2026-05-01 13:32 | 45.81247 | -17.08790 | 37151 ft | 495 kts | 50° |
| 2026-05-01 13:33 | 45.92379 | -16.89874 | 37160 ft | 497 kts | 49° |
| 2026-05-01 13:34 | 46.00543 | -16.75919 | 37147 ft | 497 kts | 50° |
| 2026-05-01 13:35 | 46.07193 | -16.64499 | 37151 ft | 497 kts | 50° |
| 2026-05-01 13:36 | 46.13856 | -16.53010 | 37144 ft | 498 kts | 50° |
| 2026-05-01 13:36 | 46.20486 | -16.41531 | 37149 ft | 498 kts | 50° |
| 2026-05-01 13:37 | 46.24915 | -16.33836 | 37139 ft | 497 kts | 50° |
| 2026-05-01 13:37 | 46.29338 | -16.26131 | 37139 ft | 497 kts | 50° |
| 2026-05-01 13:38 | 46.35954 | -16.14564 | 37139 ft | 497 kts | 50° |
| 2026-05-01 13:39 | 46.40331 | -16.06884 | 37135 ft | 497 kts | 50° |
| 2026-05-01 13:39 | 46.44736 | -15.99133 | 37133 ft | 498 kts | 50° |
| 2026-05-01 13:40 | 46.49143 | -15.91358 | 37141 ft | 498 kts | 50° |
| 2026-05-01 13:40 | 46.53551 | -15.83560 | 37122 ft | 499 kts | 50° |
| 2026-05-01 13:41 | 46.57918 | -15.75812 | 37133 ft | 499 kts | 50° |
| 2026-05-01 13:41 | 46.62322 | -15.67976 | 37122 ft | 499 kts | 51° |
| 2026-05-01 13:42 | 46.66717 | -15.60132 | 37121 ft | 500 kts | 51° |
| 2026-05-01 13:42 | 46.71081 | -15.52324 | 37119 ft | 500 kts | 51° |
| 2026-05-01 13:43 | 46.75470 | -15.44447 | 37125 ft | 500 kts | 51° |
| 2026-05-01 13:43 | 46.79861 | -15.36543 | 37118 ft | 500 kts | 51° |
| 2026-05-01 13:44 | 46.84243 | -15.28635 | 37121 ft | 500 kts | 51° |
| 2026-05-01 13:44 | 46.88616 | -15.20720 | 37105 ft | 501 kts | 51° |
| 2026-05-01 13:45 | 46.92959 | -15.12833 | 37115 ft | 501 kts | 51° |
| 2026-05-01 13:45 | 46.97342 | -15.04855 | 37110 ft | 502 kts | 51° |
| 2026-05-01 13:46 | 47.01505 | -14.96653 | 37108 ft | 501 kts | 58° |
| 2026-05-01 13:46 | 47.05109 | -14.87961 | 37112 ft | 502 kts | 60° |
| 2026-05-01 13:47 | 47.08689 | -14.79151 | 37106 ft | 502 kts | 60° |
| 2026-05-01 13:47 | 47.12297 | -14.70331 | 37104 ft | 503 kts | 59° |
| 2026-05-01 13:48 | 47.15911 | -14.61538 | 37107 ft | 503 kts | 59° |
| 2026-05-01 13:48 | 47.19505 | -14.52786 | 37100 ft | 503 kts | 60° |
| 2026-05-01 13:49 | 47.23119 | -14.43957 | 37108 ft | 503 kts | 60° |
| 2026-05-01 13:49 | 47.26725 | -14.35109 | 37103 ft | 504 kts | 60° |
| 2026-05-01 13:50 | 47.30325 | -14.26248 | 37098 ft | 504 kts | 60° |
| 2026-05-01 13:50 | 47.33925 | -14.17359 | 37094 ft | 505 kts | 60° |
| 2026-05-01 13:51 | 47.37522 | -14.08446 | 37112 ft | 505 kts | 60° |
| 2026-05-01 13:51 | 47.41088 | -13.99583 | 37102 ft | 505 kts | 60° |
| 2026-05-01 13:52 | 47.44675 | -13.90636 | 37102 ft | 506 kts | 60° |
| 2026-05-01 13:52 | 47.48254 | -13.81680 | 37089 ft | 506 kts | 60° |
| 2026-05-01 13:53 | 47.51825 | -13.72716 | 37099 ft | 506 kts | 61° |
| 2026-05-01 13:53 | 47.57170 | -13.59242 | 37100 ft | 506 kts | 61° |
| 2026-05-01 13:54 | 47.60710 | -13.50279 | 37094 ft | 506 kts | 61° |
| 2026-05-01 13:54 | 47.64262 | -13.41258 | 37099 ft | 506 kts | 61° |
| 2026-05-01 13:55 | 47.67811 | -13.32215 | 37110 ft | 507 kts | 61° |
| 2026-05-01 13:55 | 47.71356 | -13.23150 | 37102 ft | 507 kts | 61° |
| 2026-05-01 13:56 | 47.74895 | -13.14069 | 37102 ft | 507 kts | 61° |
| 2026-05-01 13:56 | 47.78402 | -13.05041 | 37103 ft | 507 kts | 62° |
| 2026-05-01 13:57 | 47.81353 | -12.97420 | 37100 ft | 507 kts | 62° |
| 2026-05-01 13:57 | 47.85445 | -12.86819 | 37103 ft | 507 kts | 62° |
| 2026-05-01 13:58 | 47.88953 | -12.77696 | 37090 ft | 507 kts | 62° |
| 2026-05-01 13:58 | 47.92432 | -12.68615 | 37104 ft | 507 kts | 62° |
| 2026-05-01 13:59 | 47.95924 | -12.59473 | 37107 ft | 507 kts | 62° |
| 2026-05-01 13:59 | 47.99417 | -12.50294 | 37098 ft | 507 kts | 62° |
| 2026-05-01 14:00 | 48.02896 | -12.41120 | 37089 ft | 508 kts | 62° |
| 2026-05-01 14:00 | 48.06348 | -12.31988 | 37101 ft | 508 kts | 62° |
| 2026-05-01 14:01 | 48.09821 | -12.22766 | 37105 ft | 508 kts | 62° |
| 2026-05-01 14:01 | 48.13289 | -12.13529 | 37100 ft | 508 kts | 62° |
| 2026-05-01 14:02 | 48.16745 | -12.04290 | 37103 ft | 509 kts | 62° |
| 2026-05-01 14:02 | 48.20173 | -11.95093 | 37096 ft | 508 kts | 62° |
| 2026-05-01 14:03 | 48.23611 | -11.85836 | 37104 ft | 508 kts | 62° |
| 2026-05-01 14:03 | 48.27048 | -11.76552 | 37103 ft | 508 kts | 62° |
| 2026-05-01 14:04 | 48.30453 | -11.67320 | 37101 ft | 507 kts | 63° |
| 2026-05-01 14:04 | 48.33310 | -11.59548 | 37097 ft | 507 kts | 63° |
| 2026-05-01 14:05 | 48.37272 | -11.48734 | 37103 ft | 506 kts | 63° |
| 2026-05-01 14:05 | 48.40666 | -11.39435 | 37106 ft | 506 kts | 63° |
| 2026-05-01 14:06 | 48.44045 | -11.30144 | 37102 ft | 506 kts | 63° |
| 2026-05-01 14:06 | 48.47397 | -11.20893 | 37103 ft | 505 kts | 63° |
| 2026-05-01 14:07 | 48.50757 | -11.11589 | 37112 ft | 505 kts | 63° |
| 2026-05-01 14:08 | 48.55792 | -10.97582 | 37122 ft | 505 kts | 63° |
| 2026-05-01 14:08 | 48.59122 | -10.88278 | 37098 ft | 505 kts | 63° |
| 2026-05-01 14:09 | 48.62457 | -10.78925 | 37111 ft | 505 kts | 63° |
| 2026-05-01 14:09 | 48.65786 | -10.69556 | 37111 ft | 505 kts | 63° |
| 2026-05-01 14:10 | 48.69085 | -10.60238 | 37133 ft | 505 kts | 63° |
| 2026-05-01 14:10 | 48.72476 | -10.50894 | 37114 ft | 506 kts | 59° |
| 2026-05-01 14:11 | 48.76703 | -10.42340 | 37138 ft | 508 kts | 51° |
| 2026-05-01 14:11 | 48.83582 | -10.30082 | 37123 ft | 509 kts | 51° |
| 2026-05-01 14:12 | 48.88103 | -10.21871 | 37119 ft | 509 kts | 51° |
| 2026-05-01 14:12 | 48.92625 | -10.13576 | 37123 ft | 509 kts | 52° |
| 2026-05-01 14:13 | 48.96383 | -10.06665 | 37126 ft | 509 kts | 52° |
| 2026-05-01 14:13 | 49.01623 | -9.96971 | 37128 ft | 509 kts | 53° |
| 2026-05-01 14:14 | 49.06020 | -9.88493 | 37135 ft | 509 kts | 53° |
| 2026-05-01 14:14 | 49.10352 | -9.80025 | 37132 ft | 509 kts | 53° |
| 2026-05-01 14:15 | 49.14723 | -9.71489 | 37127 ft | 509 kts | 53° |
| 2026-05-01 14:15 | 49.19074 | -9.62999 | 37132 ft | 509 kts | 53° |
| 2026-05-01 14:16 | 49.23447 | -9.54447 | 37138 ft | 510 kts | 54° |
| 2026-05-01 14:16 | 49.27809 | -9.45886 | 37135 ft | 510 kts | 54° |
| 2026-05-01 14:17 | 49.32140 | -9.37359 | 37140 ft | 510 kts | 54° |
| 2026-05-01 14:17 | 49.36497 | -9.28749 | 37142 ft | 510 kts | 54° |
| 2026-05-01 14:18 | 49.40823 | -9.20175 | 37148 ft | 510 kts | 54° |
| 2026-05-01 14:18 | 49.44437 | -9.12991 | 37139 ft | 510 kts | 54° |
| 2026-05-01 14:19 | 49.49499 | -9.02895 | 37136 ft | 509 kts | 54° |
| 2026-05-01 14:19 | 49.53795 | -8.94298 | 37129 ft | 509 kts | 54° |
| 2026-05-01 14:20 | 49.60269 | -8.81286 | 37150 ft | 509 kts | 54° |
| 2026-05-01 14:21 | 49.64549 | -8.72649 | 37160 ft | 509 kts | 54° |
| 2026-05-01 14:21 | 49.68852 | -8.63937 | 37148 ft | 510 kts | 54° |
| 2026-05-01 14:22 | 49.74573 | -8.52311 | 37140 ft | 510 kts | 55° |
| 2026-05-01 14:22 | 49.78857 | -8.43570 | 37152 ft | 510 kts | 55° |
| 2026-05-01 14:23 | 49.83146 | -8.34791 | 37157 ft | 511 kts | 55° |
| 2026-05-01 14:23 | 49.87435 | -8.25982 | 37156 ft | 511 kts | 55° |
| 2026-05-01 14:24 | 49.91711 | -8.17169 | 37151 ft | 511 kts | 55° |
| 2026-05-01 14:24 | 49.95952 | -8.08404 | 37157 ft | 511 kts | 56° |
| 2026-05-01 14:25 | 49.97870 | -8.03788 | 37141 ft | 505 kts | 68° |
| 2026-05-01 14:25 | 49.99044 | -7.98683 | 37169 ft | 498 kts | 81° |
| 2026-05-01 14:25 | 49.99534 | -7.93425 | 37158 ft | 492 kts | 92° |
| 2026-05-01 14:25 | 49.99347 | -7.88229 | 37166 ft | 485 kts | 101° |
| 2026-05-01 14:26 | 49.98084 | -7.72580 | 37154 ft | 489 kts | 101° |
| 2026-05-01 14:27 | 49.97287 | -7.62136 | 37175 ft | 491 kts | 101° |
| 2026-05-01 14:27 | 49.96509 | -7.51591 | 37173 ft | 492 kts | 101° |
| 2026-05-01 14:28 | 49.95333 | -7.35710 | 37165 ft | 492 kts | 101° |
| 2026-05-01 14:28 | 49.94543 | -7.25224 | 37168 ft | 492 kts | 101° |
| 2026-05-01 14:29 | 49.93739 | -7.14722 | 37179 ft | 491 kts | 101° |
| 2026-05-01 14:30 | 49.92102 | -6.93721 | 37184 ft | 489 kts | 102° |
| 2026-05-01 14:31 | 49.90850 | -6.77994 | 37176 ft | 488 kts | 102° |
| 2026-05-01 14:31 | 49.90012 | -6.67611 | 37185 ft | 487 kts | 102° |
| 2026-05-01 14:32 | 49.89160 | -6.57180 | 37193 ft | 487 kts | 102° |
| 2026-05-01 14:32 | 49.88300 | -6.46759 | 37188 ft | 487 kts | 102° |
| 2026-05-01 14:33 | 49.87428 | -6.36325 | 37187 ft | 487 kts | 102° |
| 2026-05-01 14:33 | 49.86557 | -6.26003 | 37186 ft | 486 kts | 102° |
| 2026-05-01 14:34 | 49.85669 | -6.15603 | 37187 ft | 485 kts | 102° |
| 2026-05-01 14:34 | 49.84775 | -6.05239 | 37189 ft | 485 kts | 102° |
| 2026-05-01 14:35 | 49.83870 | -5.94861 | 37190 ft | 485 kts | 102° |
| 2026-05-01 14:35 | 49.82963 | -5.84568 | 37184 ft | 484 kts | 102° |
| 2026-05-01 14:36 | 49.82043 | -5.74230 | 37178 ft | 484 kts | 102° |
| 2026-05-01 14:36 | 49.81115 | -5.63921 | 37193 ft | 484 kts | 103° |
| 2026-05-01 14:37 | 49.80178 | -5.53610 | 37194 ft | 484 kts | 103° |
| 2026-05-01 14:37 | 49.79229 | -5.43278 | 37190 ft | 485 kts | 103° |
| 2026-05-01 14:38 | 49.78276 | -5.32996 | 37189 ft | 484 kts | 103° |
| 2026-05-01 14:38 | 49.77308 | -5.22666 | 37204 ft | 484 kts | 103° |
| 2026-05-01 14:39 | 49.76340 | -5.12423 | 37204 ft | 484 kts | 103° |
| 2026-05-01 14:39 | 49.75355 | -5.02113 | 37215 ft | 484 kts | 103° |
| 2026-05-01 14:40 | 49.74361 | -4.91800 | 37214 ft | 484 kts | 103° |
| 2026-05-01 14:40 | 49.73359 | -4.81510 | 37215 ft | 484 kts | 103° |
| 2026-05-01 14:41 | 49.72347 | -4.71216 | 37214 ft | 484 kts | 103° |
| 2026-05-01 14:41 | 49.71335 | -4.61005 | 37215 ft | 484 kts | 103° |
| 2026-05-01 14:42 | 49.70304 | -4.50715 | 37190 ft | 484 kts | 103° |
| 2026-05-01 14:42 | 49.69266 | -4.40436 | 37213 ft | 483 kts | 103° |
| 2026-05-01 14:43 | 49.68229 | -4.30262 | 37221 ft | 483 kts | 103° |
| 2026-05-01 14:43 | 49.67175 | -4.20021 | 37220 ft | 483 kts | 103° |
| 2026-05-01 14:44 | 49.66114 | -4.09786 | 37215 ft | 483 kts | 103° |
| 2026-05-01 14:44 | 49.64688 | -3.94351 | 37216 ft | 486 kts | 99° |
| 2026-05-01 14:45 | 49.63768 | -3.78719 | 37228 ft | 488 kts | 99° |
| 2026-05-01 14:46 | 49.63145 | -3.68281 | 37225 ft | 489 kts | 99° |
| 2026-05-01 14:46 | 49.62161 | -3.52662 | 37210 ft | 488 kts | 99° |
| 2026-05-01 14:47 | 49.61488 | -3.42239 | 37218 ft | 488 kts | 99° |
| 2026-05-01 14:48 | 49.60464 | -3.26649 | 37228 ft | 488 kts | 99° |
| 2026-05-01 14:48 | 49.59415 | -3.10992 | 37208 ft | 488 kts | 99° |
| 2026-05-01 14:49 | 49.57998 | -2.90312 | 37222 ft | 487 kts | 99° |
| 2026-05-01 14:50 | 49.56538 | -2.69576 | 37215 ft | 487 kts | 99° |
| 2026-05-01 14:51 | 49.55417 | -2.54012 | 37212 ft | 486 kts | 99° |
| 2026-05-01 14:52 | 49.54279 | -2.38496 | 37216 ft | 486 kts | 99° |
| 2026-05-01 14:53 | 49.53125 | -2.23062 | 37203 ft | 485 kts | 99° |
| 2026-05-01 14:53 | 49.52340 | -2.12716 | 37218 ft | 485 kts | 99° |
| 2026-05-01 14:54 | 49.51547 | -2.02392 | 37216 ft | 485 kts | 99° |
| 2026-05-01 14:54 | 49.50747 | -1.92087 | 37212 ft | 485 kts | 99° |
| 2026-05-01 14:55 | 49.49942 | -1.81846 | 37219 ft | 485 kts | 99° |
| 2026-05-01 14:55 | 49.49123 | -1.71523 | 37208 ft | 486 kts | 98° |
| 2026-05-01 14:56 | 49.48288 | -1.61162 | 37218 ft | 487 kts | 99° |
| 2026-05-01 14:56 | 49.47439 | -1.50807 | 37212 ft | 488 kts | 99° |
| 2026-05-01 14:57 | 49.46588 | -1.40520 | 37206 ft | 488 kts | 99° |
| 2026-05-01 14:57 | 49.45283 | -1.24954 | 37198 ft | 489 kts | 98° |
| 2026-05-01 14:58 | 49.44404 | -1.14594 | 37201 ft | 489 kts | 98° |
| 2026-05-01 14:58 | 49.43520 | -1.04296 | 37195 ft | 489 kts | 98° |
| 2026-05-01 14:59 | 49.42622 | -0.93934 | 37191 ft | 489 kts | 99° |
| 2026-05-01 14:59 | 49.41715 | -0.83593 | 37191 ft | 489 kts | 98° |
| 2026-05-01 15:00 | 49.40342 | -0.68129 | 37198 ft | 488 kts | 99° |
| 2026-05-01 15:01 | 49.39409 | -0.57769 | 36936 ft | 492 kts | 99° |
| 2026-05-01 15:01 | 49.38931 | -0.52496 | 36022 ft | 502 kts | 98° |
| 2026-05-01 15:01 | 49.38447 | -0.47185 | 35167 ft | 501 kts | 98° |
| 2026-05-01 15:01 | 49.37961 | -0.41885 | 34304 ft | 501 kts | 98° |
| 2026-05-01 15:02 | 49.37474 | -0.36585 | 33282 ft | 502 kts | 98° |
| 2026-05-01 15:02 | 49.37315 | -0.34857 | 32957 ft | 502 kts | 98° |
| 2026-05-01 15:02 | 49.36506 | -0.26122 | 31328 ft | 500 kts | 99° |
| 2026-05-01 15:02 | 49.36051 | -0.20835 | 30478 ft | 497 kts | 97° |
| 2026-05-01 15:03 | 49.35708 | -0.15599 | 29756 ft | 488 kts | 96° |
| 2026-05-01 15:03 | 49.35422 | -0.10512 | 29042 ft | 481 kts | 96° |
| 2026-05-01 15:03 | 49.35142 | -0.05428 | 28383 ft | 473 kts | 96° |
| 2026-05-01 15:03 | 49.34856 | -0.00433 | 27761 ft | 466 kts | 97° |
| 2026-05-01 15:04 | 49.34560 | 0.04489 | 27138 ft | 459 kts | 97° |
| 2026-05-01 15:04 | 49.34256 | 0.09341 | 26507 ft | 453 kts | 98° |
| 2026-05-01 15:04 | 49.33953 | 0.14053 | 25911 ft | 448 kts | 98° |
| 2026-05-01 15:04 | 49.33645 | 0.18783 | 25307 ft | 443 kts | 98° |
| 2026-05-01 15:05 | 49.33340 | 0.23452 | 24712 ft | 439 kts | 98° |
| 2026-05-01 15:05 | 49.33035 | 0.28087 | 24125 ft | 434 kts | 98° |
| 2026-05-01 15:05 | 49.32744 | 0.32490 | 23508 ft | 431 kts | 98° |
| 2026-05-01 15:05 | 49.32437 | 0.37123 | 23000 ft | 423 kts | 98° |
| 2026-05-01 15:06 | 49.32147 | 0.41498 | 22851 ft | 410 kts | 98° |
| 2026-05-01 15:06 | 49.31858 | 0.45817 | 22648 ft | 397 kts | 98° |
| 2026-05-01 15:06 | 49.31588 | 0.49910 | 22474 ft | 386 kts | 98° |
| 2026-05-01 15:06 | 49.31441 | 0.54003 | 21997 ft | 383 kts | 95° |
| 2026-05-01 15:07 | 49.31398 | 0.58068 | 21558 ft | 380 kts | 94° |
| 2026-05-01 15:07 | 49.31384 | 0.62112 | 21118 ft | 376 kts | 94° |
| 2026-05-01 15:07 | 49.31368 | 0.66110 | 20693 ft | 373 kts | 94° |
| 2026-05-01 15:07 | 49.31344 | 0.70070 | 20270 ft | 371 kts | 94° |
| 2026-05-01 15:08 | 49.31310 | 0.73977 | 19853 ft | 368 kts | 94° |
| 2026-05-01 15:08 | 49.31268 | 0.77900 | 19428 ft | 367 kts | 94° |
| 2026-05-01 15:08 | 49.31222 | 0.81766 | 18995 ft | 366 kts | 94° |
| 2026-05-01 15:08 | 49.31172 | 0.85664 | 18572 ft | 364 kts | 94° |
| 2026-05-01 15:09 | 49.31120 | 0.89548 | 18071 ft | 363 kts | 95° |
| 2026-05-01 15:09 | 49.31066 | 0.93405 | 17627 ft | 361 kts | 95° |
| 2026-05-01 15:09 | 49.31012 | 0.97232 | 17180 ft | 358 kts | 95° |
| 2026-05-01 15:09 | 49.30976 | 0.99762 | 16893 ft | 357 kts | 95° |
| 2026-05-01 15:10 | 49.30901 | 1.04785 | 16328 ft | 354 kts | 95° |
| 2026-05-01 15:10 | 49.30787 | 1.12130 | 15506 ft | 350 kts | 95° |
| 2026-05-01 15:10 | 49.30747 | 1.14692 | 15222 ft | 349 kts | 95° |
| 2026-05-01 15:11 | 49.30690 | 1.18288 | 14819 ft | 348 kts | 95° |
| 2026-05-01 15:11 | 49.30568 | 1.25630 | 14000 ft | 345 kts | 95° |
| 2026-05-01 15:11 | 49.30503 | 1.29306 | 13531 ft | 344 kts | 95° |
| 2026-05-01 15:12 | 49.30440 | 1.32965 | 13088 ft | 343 kts | 95° |
| 2026-05-01 15:12 | 49.30142 | 1.40045 | 12248 ft | 330 kts | 108° |
| 2026-05-01 15:12 | 49.29344 | 1.43307 | 11907 ft | 324 kts | 117° |
| 2026-05-01 15:13 | 49.26182 | 1.52087 | 11217 ft | 313 kts | 124° |
| 2026-05-01 15:14 | 49.23911 | 1.57713 | 10657 ft | 312 kts | 123° |
| 2026-05-01 15:14 | 49.22780 | 1.60562 | 10387 ft | 311 kts | 123° |
| 2026-05-01 15:14 | 49.20596 | 1.66143 | 9900 ft | 287 kts | 123° |
| 2026-05-01 15:15 | 49.18677 | 1.71088 | 9459 ft | 270 kts | 123° |
| 2026-05-01 15:15 | 49.16821 | 1.75868 | 9145 ft | 262 kts | 123° |
| 2026-05-01 15:16 | 49.14938 | 1.80708 | 8372 ft | 267 kts | 123° |
| 2026-05-01 15:16 | 49.13065 | 1.85521 | 7607 ft | 256 kts | 123° |
| 2026-05-01 15:17 | 49.11332 | 1.89977 | 6803 ft | 234 kts | 123° |
| 2026-05-01 15:18 | 49.08981 | 1.96005 | 5745 ft | 212 kts | 123° |
| 2026-05-01 15:18 | 49.08219 | 1.97950 | 5378 ft | 215 kts | 123° |
| 2026-05-01 15:19 | 49.05996 | 2.03631 | 4281 ft | 212 kts | 124° |
| 2026-05-01 15:19 | 49.04500 | 2.07446 | 4008 ft | 208 kts | 123° |
| 2026-05-01 15:19 | 49.03762 | 2.09326 | 4014 ft | 210 kts | 124° |
| 2026-05-01 15:20 | 49.02297 | 2.13055 | 3990 ft | 208 kts | 124° |
| 2026-05-01 15:20 | 49.01567 | 2.14912 | 3996 ft | 202 kts | 124° |
| 2026-05-01 15:20 | 49.00838 | 2.16758 | 4015 ft | 206 kts | 123° |
| 2026-05-01 15:21 | 49.00129 | 2.18591 | 4012 ft | 206 kts | 118° |
| 2026-05-01 15:21 | 48.99889 | 2.20730 | 3983 ft | 210 kts | 86° |
| 2026-05-01 15:21 | 49.00166 | 2.22948 | 3976 ft | 217 kts | 80° |
| 2026-05-01 15:21 | 49.00465 | 2.25146 | 3968 ft | 216 kts | 80° |
| 2026-05-01 15:22 | 49.00853 | 2.29668 | 3538 ft | 221 kts | 81° |